sensor_id;sensor_type;location;lat;lon;timestamp;P1;durP1;ratioP1;P2;durP2;ratioP2
9102;SDS011;4587;51.434;6.788;2023-12-14T00:00:25;21.50;;;17.40;;
9102;SDS011;4587;51.434;6.788;2023-12-14T00:02:51;24.93;;;17.80;;
9102;SDS011;4587;51.434;6.788;2023-12-14T00:05:16;23.00;;;17.40;;
9102;SDS011;4587;51.434;6.788;2023-12-14T00:07:42;20.97;;;14.57;;
9102;SDS011;4587;51.434;6.788;2023-12-14T00:10:07;20.67;;;13.70;;
9102;SDS011;4587;51.434;6.788;2023-12-14T00:12:33;16.30;;;12.23;;
9102;SDS011;4587;51.434;6.788;2023-12-14T00:14:58;12.80;;;10.63;;
9102;SDS011;4587;51.434;6.788;2023-12-14T00:17:24;12.30;;;9.67;;
9102;SDS011;4587;51.434;6.788;2023-12-14T00:19:50;11.37;;;10.03;;
9102;SDS011;4587;51.434;6.788;2023-12-14T00:22:15;12.80;;;9.97;;
9102;SDS011;4587;51.434;6.788;2023-12-14T00:24:41;14.33;;;10.90;;
9102;SDS011;4587;51.434;6.788;2023-12-14T00:27:07;15.00;;;10.70;;
9102;SDS011;4587;51.434;6.788;2023-12-14T00:29:32;14.23;;;10.83;;
9102;SDS011;4587;51.434;6.788;2023-12-14T00:31:58;13.23;;;10.00;;
9102;SDS011;4587;51.434;6.788;2023-12-14T00:34:23;12.97;;;9.63;;
9102;SDS011;4587;51.434;6.788;2023-12-14T00:36:49;11.20;;;9.20;;
9102;SDS011;4587;51.434;6.788;2023-12-14T00:39:14;11.93;;;9.13;;
9102;SDS011;4587;51.434;6.788;2023-12-14T00:41:40;12.87;;;9.47;;
9102;SDS011;4587;51.434;6.788;2023-12-14T00:44:05;10.60;;;8.57;;
9102;SDS011;4587;51.434;6.788;2023-12-14T00:46:31;10.30;;;8.90;;
9102;SDS011;4587;51.434;6.788;2023-12-14T00:48:56;9.07;;;8.13;;
9102;SDS011;4587;51.434;6.788;2023-12-14T00:51:22;12.30;;;8.83;;
9102;SDS011;4587;51.434;6.788;2023-12-14T00:53:47;10.03;;;8.57;;
9102;SDS011;4587;51.434;6.788;2023-12-14T00:56:13;9.20;;;8.20;;
9102;SDS011;4587;51.434;6.788;2023-12-14T00:58:38;10.77;;;9.30;;
9102;SDS011;4587;51.434;6.788;2023-12-14T01:01:04;9.90;;;8.90;;
9102;SDS011;4587;51.434;6.788;2023-12-14T01:03:30;11.97;;;9.57;;
9102;SDS011;4587;51.434;6.788;2023-12-14T01:05:55;10.53;;;9.40;;
9102;SDS011;4587;51.434;6.788;2023-12-14T01:08:21;9.80;;;8.80;;
9102;SDS011;4587;51.434;6.788;2023-12-14T01:10:46;10.27;;;9.17;;
9102;SDS011;4587;51.434;6.788;2023-12-14T01:13:12;9.57;;;8.67;;
9102;SDS011;4587;51.434;6.788;2023-12-14T01:15:37;9.13;;;8.23;;
9102;SDS011;4587;51.434;6.788;2023-12-14T01:18:03;9.37;;;8.00;;
9102;SDS011;4587;51.434;6.788;2023-12-14T01:20:29;7.93;;;7.13;;
9102;SDS011;4587;51.434;6.788;2023-12-14T01:22:54;7.60;;;6.90;;
9102;SDS011;4587;51.434;6.788;2023-12-14T01:25:20;7.70;;;7.00;;
9102;SDS011;4587;51.434;6.788;2023-12-14T01:27:46;7.10;;;6.40;;
9102;SDS011;4587;51.434;6.788;2023-12-14T01:30:11;7.27;;;6.57;;
9102;SDS011;4587;51.434;6.788;2023-12-14T01:32:37;7.13;;;6.43;;
9102;SDS011;4587;51.434;6.788;2023-12-14T01:35:03;8.27;;;7.30;;
9102;SDS011;4587;51.434;6.788;2023-12-14T01:37:29;8.40;;;7.60;;
9102;SDS011;4587;51.434;6.788;2023-12-14T01:39:54;10.77;;;9.77;;
9102;SDS011;4587;51.434;6.788;2023-12-14T01:42:20;11.23;;;10.17;;
9102;SDS011;4587;51.434;6.788;2023-12-14T01:44:46;12.73;;;11.47;;
9102;SDS011;4587;51.434;6.788;2023-12-14T01:47:11;13.10;;;11.80;;
9102;SDS011;4587;51.434;6.788;2023-12-14T01:49:37;12.93;;;11.63;;
9102;SDS011;4587;51.434;6.788;2023-12-14T01:52:02;14.47;;;12.33;;
9102;SDS011;4587;51.434;6.788;2023-12-14T01:54:28;13.10;;;11.80;;
9102;SDS011;4587;51.434;6.788;2023-12-14T01:56:53;12.40;;;11.10;;
9102;SDS011;4587;51.434;6.788;2023-12-14T01:59:19;12.57;;;11.27;;
9102;SDS011;4587;51.434;6.788;2023-12-14T02:01:46;13.63;;;12.27;;
9102;SDS011;4587;51.434;6.788;2023-12-14T02:04:17;13.47;;;12.07;;
9102;SDS011;4587;51.434;6.788;2023-12-14T02:06:42;13.60;;;12.20;;
9102;SDS011;4587;51.434;6.788;2023-12-14T02:09:08;14.73;;;13.23;;
9102;SDS011;4587;51.434;6.788;2023-12-14T02:11:34;15.80;;;14.20;;
9102;SDS011;4587;51.434;6.788;2023-12-14T02:14:04;14.67;;;13.17;;
9102;SDS011;4587;51.434;6.788;2023-12-14T02:16:30;17.07;;;15.27;;
9102;SDS011;4587;51.434;6.788;2023-12-14T02:18:56;16.57;;;14.87;;
9102;SDS011;4587;51.434;6.788;2023-12-14T02:21:22;18.23;;;16.20;;
9102;SDS011;4587;51.434;6.788;2023-12-14T02:23:47;17.40;;;15.33;;
9102;SDS011;4587;51.434;6.788;2023-12-14T02:26:13;17.57;;;15.67;;
9102;SDS011;4587;51.434;6.788;2023-12-14T02:28:39;19.80;;;16.77;;
9102;SDS011;4587;51.434;6.788;2023-12-14T02:31:05;21.00;;;16.47;;
9102;SDS011;4587;51.434;6.788;2023-12-14T02:33:30;21.33;;;17.53;;
9102;SDS011;4587;51.434;6.788;2023-12-14T02:35:56;21.03;;;17.63;;
9102;SDS011;4587;51.434;6.788;2023-12-14T02:38:21;21.13;;;17.37;;
9102;SDS011;4587;51.434;6.788;2023-12-14T02:40:47;19.37;;;17.20;;
9102;SDS011;4587;51.434;6.788;2023-12-14T02:43:15;18.87;;;16.83;;
9102;SDS011;4587;51.434;6.788;2023-12-14T02:45:41;22.50;;;17.47;;
9102;SDS011;4587;51.434;6.788;2023-12-14T02:48:06;19.03;;;16.63;;
9102;SDS011;4587;51.434;6.788;2023-12-14T02:50:32;19.13;;;15.90;;
9102;SDS011;4587;51.434;6.788;2023-12-14T02:52:57;18.90;;;16.40;;
9102;SDS011;4587;51.434;6.788;2023-12-14T02:55:23;18.20;;;16.00;;
9102;SDS011;4587;51.434;6.788;2023-12-14T02:57:49;18.33;;;15.80;;
9102;SDS011;4587;51.434;6.788;2023-12-14T03:00:14;18.30;;;15.77;;
9102;SDS011;4587;51.434;6.788;2023-12-14T03:02:40;18.90;;;14.47;;
9102;SDS011;4587;51.434;6.788;2023-12-14T03:05:05;16.90;;;13.73;;
9102;SDS011;4587;51.434;6.788;2023-12-14T03:07:31;17.70;;;14.30;;
9102;SDS011;4587;51.434;6.788;2023-12-14T03:09:57;16.13;;;14.17;;
9102;SDS011;4587;51.434;6.788;2023-12-14T03:12:22;16.23;;;13.77;;
9102;SDS011;4587;51.434;6.788;2023-12-14T03:14:48;16.40;;;13.53;;
9102;SDS011;4587;51.434;6.788;2023-12-14T03:17:13;15.03;;;13.13;;
9102;SDS011;4587;51.434;6.788;2023-12-14T03:19:41;15.87;;;13.17;;
9102;SDS011;4587;51.434;6.788;2023-12-14T03:22:07;17.73;;;14.00;;
9102;SDS011;4587;51.434;6.788;2023-12-14T03:24:34;15.73;;;13.17;;
9102;SDS011;4587;51.434;6.788;2023-12-14T03:27:01;18.20;;;13.83;;
9102;SDS011;4587;51.434;6.788;2023-12-14T03:29:27;18.63;;;14.67;;
9102;SDS011;4587;51.434;6.788;2023-12-14T03:31:54;20.47;;;16.33;;
9102;SDS011;4587;51.434;6.788;2023-12-14T03:34:23;19.77;;;15.67;;
9102;SDS011;4587;51.434;6.788;2023-12-14T03:36:49;20.63;;;16.50;;
9102;SDS011;4587;51.434;6.788;2023-12-14T03:39:15;22.23;;;16.97;;
9102;SDS011;4587;51.434;6.788;2023-12-14T03:41:41;18.83;;;15.73;;
9102;SDS011;4587;51.434;6.788;2023-12-14T03:44:07;21.87;;;16.53;;
9102;SDS011;4587;51.434;6.788;2023-12-14T03:46:33;22.07;;;17.53;;
9102;SDS011;4587;51.434;6.788;2023-12-14T03:48:59;20.97;;;17.23;;
9102;SDS011;4587;51.434;6.788;2023-12-14T03:51:25;21.47;;;17.67;;
9102;SDS011;4587;51.434;6.788;2023-12-14T03:53:50;24.07;;;19.47;;
9102;SDS011;4587;51.434;6.788;2023-12-14T03:56:16;24.90;;;19.13;;
9102;SDS011;4587;51.434;6.788;2023-12-14T03:58:41;24.43;;;20.30;;
9102;SDS011;4587;51.434;6.788;2023-12-14T04:01:07;24.27;;;19.27;;
9102;SDS011;4587;51.434;6.788;2023-12-14T04:03:32;25.80;;;20.30;;
9102;SDS011;4587;51.434;6.788;2023-12-14T04:05:58;27.07;;;20.30;;
9102;SDS011;4587;51.434;6.788;2023-12-14T04:08:24;26.87;;;20.77;;
9102;SDS011;4587;51.434;6.788;2023-12-14T04:10:49;25.27;;;19.40;;
9102;SDS011;4587;51.434;6.788;2023-12-14T04:13:15;27.23;;;21.10;;
9102;SDS011;4587;51.434;6.788;2023-12-14T04:15:40;26.83;;;20.67;;
9102;SDS011;4587;51.434;6.788;2023-12-14T04:18:07;27.93;;;20.53;;
9102;SDS011;4587;51.434;6.788;2023-12-14T04:20:33;26.87;;;20.97;;
9102;SDS011;4587;51.434;6.788;2023-12-14T04:22:59;25.13;;;20.23;;
9102;SDS011;4587;51.434;6.788;2023-12-14T04:25:24;27.13;;;20.53;;
9102;SDS011;4587;51.434;6.788;2023-12-14T04:27:50;26.47;;;21.47;;
9102;SDS011;4587;51.434;6.788;2023-12-14T04:30:16;29.67;;;21.73;;
9102;SDS011;4587;51.434;6.788;2023-12-14T04:32:41;28.03;;;20.80;;
9102;SDS011;4587;51.434;6.788;2023-12-14T04:35:07;27.53;;;20.40;;
9102;SDS011;4587;51.434;6.788;2023-12-14T04:37:33;25.87;;;20.27;;
9102;SDS011;4587;51.434;6.788;2023-12-14T04:39:59;27.43;;;20.43;;
9102;SDS011;4587;51.434;6.788;2023-12-14T04:42:25;25.37;;;20.20;;
9102;SDS011;4587;51.434;6.788;2023-12-14T04:44:51;26.07;;;20.07;;
9102;SDS011;4587;51.434;6.788;2023-12-14T04:47:16;24.00;;;19.77;;
9102;SDS011;4587;51.434;6.788;2023-12-14T04:49:42;24.33;;;18.97;;
9102;SDS011;4587;51.434;6.788;2023-12-14T04:52:07;23.67;;;18.90;;
9102;SDS011;4587;51.434;6.788;2023-12-14T04:54:33;23.40;;;18.80;;
9102;SDS011;4587;51.434;6.788;2023-12-14T04:57:02;21.00;;;16.87;;
9102;SDS011;4587;51.434;6.788;2023-12-14T04:59:28;20.63;;;17.37;;
9102;SDS011;4587;51.434;6.788;2023-12-14T05:01:54;22.37;;;17.23;;
9102;SDS011;4587;51.434;6.788;2023-12-14T05:04:19;23.00;;;17.20;;
9102;SDS011;4587;51.434;6.788;2023-12-14T05:06:45;22.07;;;17.80;;
9102;SDS011;4587;51.434;6.788;2023-12-14T05:09:10;22.57;;;17.90;;
9102;SDS011;4587;51.434;6.788;2023-12-14T05:11:36;21.10;;;17.60;;
9102;SDS011;4587;51.434;6.788;2023-12-14T05:14:04;23.13;;;17.33;;
9102;SDS011;4587;51.434;6.788;2023-12-14T05:16:29;20.23;;;16.97;;
9102;SDS011;4587;51.434;6.788;2023-12-14T05:18:55;25.27;;;17.90;;
9102;SDS011;4587;51.434;6.788;2023-12-14T05:21:22;19.13;;;15.63;;
9102;SDS011;4587;51.434;6.788;2023-12-14T05:23:47;21.07;;;16.50;;
9102;SDS011;4587;51.434;6.788;2023-12-14T05:26:13;20.57;;;16.53;;
9102;SDS011;4587;51.434;6.788;2023-12-14T05:28:38;20.53;;;15.97;;
9102;SDS011;4587;51.434;6.788;2023-12-14T05:31:04;21.57;;;16.77;;
9102;SDS011;4587;51.434;6.788;2023-12-14T05:33:30;22.10;;;17.63;;
9102;SDS011;4587;51.434;6.788;2023-12-14T05:35:56;21.87;;;17.70;;
9102;SDS011;4587;51.434;6.788;2023-12-14T05:38:22;22.73;;;17.90;;
9102;SDS011;4587;51.434;6.788;2023-12-14T05:40:47;24.33;;;18.30;;
9102;SDS011;4587;51.434;6.788;2023-12-14T05:43:13;23.47;;;19.23;;
9102;SDS011;4587;51.434;6.788;2023-12-14T05:45:38;25.97;;;19.87;;
9102;SDS011;4587;51.434;6.788;2023-12-14T05:48:04;24.43;;;19.00;;
9102;SDS011;4587;51.434;6.788;2023-12-14T05:50:30;26.23;;;19.80;;
9102;SDS011;4587;51.434;6.788;2023-12-14T05:52:56;24.97;;;19.63;;
9102;SDS011;4587;51.434;6.788;2023-12-14T05:55:21;27.40;;;20.60;;
9102;SDS011;4587;51.434;6.788;2023-12-14T05:57:48;24.20;;;19.77;;
9102;SDS011;4587;51.434;6.788;2023-12-14T06:00:14;27.30;;;20.20;;
9102;SDS011;4587;51.434;6.788;2023-12-14T06:02:39;26.03;;;20.60;;
9102;SDS011;4587;51.434;6.788;2023-12-14T06:05:06;27.93;;;20.67;;
9102;SDS011;4587;51.434;6.788;2023-12-14T06:07:32;27.37;;;20.63;;
9102;SDS011;4587;51.434;6.788;2023-12-14T06:09:58;26.30;;;19.80;;
9102;SDS011;4587;51.434;6.788;2023-12-14T06:12:24;25.70;;;19.27;;
9102;SDS011;4587;51.434;6.788;2023-12-14T06:14:50;27.57;;;19.53;;
9102;SDS011;4587;51.434;6.788;2023-12-14T06:17:15;24.93;;;18.97;;
9102;SDS011;4587;51.434;6.788;2023-12-14T06:19:41;24.30;;;18.73;;
9102;SDS011;4587;51.434;6.788;2023-12-14T06:22:07;26.60;;;19.27;;
9102;SDS011;4587;51.434;6.788;2023-12-14T06:24:32;25.47;;;18.93;;
9102;SDS011;4587;51.434;6.788;2023-12-14T06:26:58;26.43;;;18.50;;
9102;SDS011;4587;51.434;6.788;2023-12-14T06:29:24;26.43;;;20.03;;
9102;SDS011;4587;51.434;6.788;2023-12-14T06:31:49;26.47;;;20.83;;
9102;SDS011;4587;51.434;6.788;2023-12-14T06:34:16;29.77;;;20.70;;
9102;SDS011;4587;51.434;6.788;2023-12-14T06:36:42;28.63;;;21.30;;
9102;SDS011;4587;51.434;6.788;2023-12-14T06:39:09;26.93;;;21.30;;
9102;SDS011;4587;51.434;6.788;2023-12-14T06:41:35;30.87;;;21.93;;
9102;SDS011;4587;51.434;6.788;2023-12-14T06:44:01;33.63;;;22.13;;
9102;SDS011;4587;51.434;6.788;2023-12-14T06:46:27;31.80;;;22.53;;
9102;SDS011;4587;51.434;6.788;2023-12-14T06:48:52;31.50;;;23.10;;
9102;SDS011;4587;51.434;6.788;2023-12-14T06:51:19;31.77;;;22.97;;
9102;SDS011;4587;51.434;6.788;2023-12-14T06:53:44;34.50;;;23.73;;
9102;SDS011;4587;51.434;6.788;2023-12-14T06:56:11;31.87;;;24.10;;
9102;SDS011;4587;51.434;6.788;2023-12-14T06:58:37;31.23;;;23.80;;
9102;SDS011;4587;51.434;6.788;2023-12-14T07:01:06;30.73;;;23.83;;
9102;SDS011;4587;51.434;6.788;2023-12-14T07:03:32;33.50;;;23.97;;
9102;SDS011;4587;51.434;6.788;2023-12-14T07:05:58;30.53;;;23.67;;
9102;SDS011;4587;51.434;6.788;2023-12-14T07:08:24;28.80;;;23.40;;
9102;SDS011;4587;51.434;6.788;2023-12-14T07:10:50;33.30;;;23.07;;
9102;SDS011;4587;51.434;6.788;2023-12-14T07:13:15;31.53;;;22.70;;
9102;SDS011;4587;51.434;6.788;2023-12-14T07:15:41;29.47;;;23.20;;
9102;SDS011;4587;51.434;6.788;2023-12-14T07:18:07;30.33;;;22.93;;
9102;SDS011;4587;51.434;6.788;2023-12-14T07:20:32;29.87;;;22.30;;
9102;SDS011;4587;51.434;6.788;2023-12-14T07:22:58;29.23;;;23.47;;
9102;SDS011;4587;51.434;6.788;2023-12-14T07:25:24;36.60;;;25.70;;
9102;SDS011;4587;51.434;6.788;2023-12-14T07:27:49;37.17;;;27.20;;
9102;SDS011;4587;51.434;6.788;2023-12-14T07:30:16;36.33;;;28.37;;
9102;SDS011;4587;51.434;6.788;2023-12-14T07:32:41;40.80;;;28.23;;
9102;SDS011;4587;51.434;6.788;2023-12-14T07:35:07;41.23;;;29.40;;
9102;SDS011;4587;51.434;6.788;2023-12-14T07:37:33;41.43;;;30.57;;
9102;SDS011;4587;51.434;6.788;2023-12-14T07:39:59;39.40;;;28.93;;
9102;SDS011;4587;51.434;6.788;2023-12-14T07:42:24;40.83;;;29.47;;
9102;SDS011;4587;51.434;6.788;2023-12-14T07:44:50;44.23;;;30.10;;
9102;SDS011;4587;51.434;6.788;2023-12-14T07:47:16;38.83;;;29.50;;
9102;SDS011;4587;51.434;6.788;2023-12-14T07:49:41;39.07;;;29.97;;
9102;SDS011;4587;51.434;6.788;2023-12-14T07:52:07;39.57;;;30.00;;
9102;SDS011;4587;51.434;6.788;2023-12-14T07:54:33;41.57;;;30.07;;
9102;SDS011;4587;51.434;6.788;2023-12-14T07:56:58;39.93;;;29.10;;
9102;SDS011;4587;51.434;6.788;2023-12-14T07:59:24;41.47;;;30.03;;
9102;SDS011;4587;51.434;6.788;2023-12-14T08:01:49;38.10;;;28.93;;
9102;SDS011;4587;51.434;6.788;2023-12-14T08:04:15;36.83;;;27.13;;
9102;SDS011;4587;51.434;6.788;2023-12-14T08:06:40;44.10;;;28.70;;
9102;SDS011;4587;51.434;6.788;2023-12-14T08:09:07;37.57;;;26.67;;
9102;SDS011;4587;51.434;6.788;2023-12-14T08:11:32;37.33;;;27.50;;
9102;SDS011;4587;51.434;6.788;2023-12-14T08:13:58;38.80;;;28.93;;
9102;SDS011;4587;51.434;6.788;2023-12-14T08:16:24;36.33;;;27.60;;
9102;SDS011;4587;51.434;6.788;2023-12-14T08:18:49;38.40;;;27.80;;
9102;SDS011;4587;51.434;6.788;2023-12-14T08:21:15;37.40;;;26.73;;
9102;SDS011;4587;51.434;6.788;2023-12-14T08:23:41;35.70;;;26.03;;
9102;SDS011;4587;51.434;6.788;2023-12-14T08:26:07;32.73;;;24.60;;
9102;SDS011;4587;51.434;6.788;2023-12-14T08:28:35;35.27;;;25.73;;
9102;SDS011;4587;51.434;6.788;2023-12-14T08:31:00;34.70;;;25.30;;
9102;SDS011;4587;51.434;6.788;2023-12-14T08:33:28;32.03;;;24.93;;
9102;SDS011;4587;51.434;6.788;2023-12-14T08:35:54;32.33;;;24.60;;
9102;SDS011;4587;51.434;6.788;2023-12-14T08:38:20;31.40;;;24.60;;
9102;SDS011;4587;51.434;6.788;2023-12-14T08:40:45;32.73;;;23.80;;
9102;SDS011;4587;51.434;6.788;2023-12-14T08:43:11;34.17;;;25.90;;
9102;SDS011;4587;51.434;6.788;2023-12-14T08:45:37;31.13;;;25.30;;
9102;SDS011;4587;51.434;6.788;2023-12-14T08:48:03;30.37;;;24.00;;
9102;SDS011;4587;51.434;6.788;2023-12-14T08:50:29;29.57;;;23.83;;
9102;SDS011;4587;51.434;6.788;2023-12-14T08:52:54;30.47;;;24.00;;
9102;SDS011;4587;51.434;6.788;2023-12-14T08:55:20;27.67;;;23.67;;
9102;SDS011;4587;51.434;6.788;2023-12-14T08:57:46;29.80;;;24.53;;
9102;SDS011;4587;51.434;6.788;2023-12-14T09:00:12;30.07;;;24.47;;
9102;SDS011;4587;51.434;6.788;2023-12-14T09:02:38;31.03;;;24.43;;
9102;SDS011;4587;51.434;6.788;2023-12-14T09:05:04;28.93;;;24.63;;
9102;SDS011;4587;51.434;6.788;2023-12-14T09:07:30;31.83;;;23.97;;
9102;SDS011;4587;51.434;6.788;2023-12-14T09:09:56;28.47;;;23.37;;
9102;SDS011;4587;51.434;6.788;2023-12-14T09:12:22;28.70;;;23.07;;
9102;SDS011;4587;51.434;6.788;2023-12-14T09:14:47;28.87;;;23.00;;
9102;SDS011;4587;51.434;6.788;2023-12-14T09:17:13;31.33;;;23.53;;
9102;SDS011;4587;51.434;6.788;2023-12-14T09:19:39;26.07;;;22.43;;
9102;SDS011;4587;51.434;6.788;2023-12-14T09:22:04;29.07;;;22.23;;
9102;SDS011;4587;51.434;6.788;2023-12-14T09:24:30;29.20;;;23.20;;
9102;SDS011;4587;51.434;6.788;2023-12-14T09:26:55;27.80;;;23.30;;
9102;SDS011;4587;51.434;6.788;2023-12-14T09:29:21;29.27;;;24.27;;
9102;SDS011;4587;51.434;6.788;2023-12-14T09:31:46;28.60;;;23.47;;
9102;SDS011;4587;51.434;6.788;2023-12-14T09:34:12;25.23;;;21.43;;
9102;SDS011;4587;51.434;6.788;2023-12-14T09:36:38;24.50;;;21.27;;
9102;SDS011;4587;51.434;6.788;2023-12-14T09:39:04;23.27;;;20.77;;
9102;SDS011;4587;51.434;6.788;2023-12-14T09:41:34;24.30;;;21.10;;
9102;SDS011;4587;51.434;6.788;2023-12-14T09:43:59;25.17;;;20.33;;
9102;SDS011;4587;51.434;6.788;2023-12-14T09:46:27;22.90;;;19.53;;
9102;SDS011;4587;51.434;6.788;2023-12-14T09:48:52;23.13;;;19.77;;
9102;SDS011;4587;51.434;6.788;2023-12-14T09:51:20;21.83;;;18.63;;
9102;SDS011;4587;51.434;6.788;2023-12-14T09:53:45;21.87;;;18.83;;
9102;SDS011;4587;51.434;6.788;2023-12-14T09:56:11;21.77;;;19.23;;
9102;SDS011;4587;51.434;6.788;2023-12-14T09:58:37;20.17;;;18.03;;
9102;SDS011;4587;51.434;6.788;2023-12-14T10:01:02;21.33;;;18.00;;
9102;SDS011;4587;51.434;6.788;2023-12-14T10:03:45;20.20;;;17.77;;
9102;SDS011;4587;51.434;6.788;2023-12-14T10:06:10;21.40;;;18.03;;
9102;SDS011;4587;51.434;6.788;2023-12-14T10:08:37;23.10;;;16.90;;
9102;SDS011;4587;51.434;6.788;2023-12-14T10:11:05;20.60;;;17.43;;
9102;SDS011;4587;51.434;6.788;2023-12-14T10:13:40;19.27;;;17.17;;
9102;SDS011;4587;51.434;6.788;2023-12-14T10:16:06;19.83;;;17.60;;
9102;SDS011;4587;51.434;6.788;2023-12-14T10:18:32;19.07;;;17.00;;
9102;SDS011;4587;51.434;6.788;2023-12-14T10:20:59;20.00;;;17.60;;
9102;SDS011;4587;51.434;6.788;2023-12-14T10:23:26;21.33;;;18.47;;
9102;SDS011;4587;51.434;6.788;2023-12-14T10:25:52;22.07;;;18.03;;
9102;SDS011;4587;51.434;6.788;2023-12-14T10:28:18;21.13;;;18.47;;
9102;SDS011;4587;51.434;6.788;2023-12-14T10:30:44;20.10;;;18.00;;
9102;SDS011;4587;51.434;6.788;2023-12-14T10:33:10;19.17;;;17.07;;
9102;SDS011;4587;51.434;6.788;2023-12-14T10:35:35;23.30;;;19.13;;
9102;SDS011;4587;51.434;6.788;2023-12-14T10:38:02;21.03;;;18.20;;
9102;SDS011;4587;51.434;6.788;2023-12-14T10:40:29;22.07;;;18.60;;
9102;SDS011;4587;51.434;6.788;2023-12-14T10:42:56;20.97;;;18.60;;
9102;SDS011;4587;51.434;6.788;2023-12-14T10:45:27;22.17;;;17.70;;
9102;SDS011;4587;51.434;6.788;2023-12-14T10:48:00;19.70;;;17.60;;
9102;SDS011;4587;51.434;6.788;2023-12-14T10:50:30;20.37;;;17.23;;
9102;SDS011;4587;51.434;6.788;2023-12-14T10:52:59;21.47;;;17.30;;
9102;SDS011;4587;51.434;6.788;2023-12-14T10:58:07;17.80;;;15.10;;
9102;SDS011;4587;51.434;6.788;2023-12-14T11:00:33;15.53;;;13.57;;
9102;SDS011;4587;51.434;6.788;2023-12-14T11:03:00;17.00;;;14.40;;
9102;SDS011;4587;51.434;6.788;2023-12-14T11:05:27;18.23;;;14.40;;
9102;SDS011;4587;51.434;6.788;2023-12-14T11:07:56;14.73;;;13.17;;
9102;SDS011;4587;51.434;6.788;2023-12-14T11:10:35;15.97;;;14.27;;
9102;SDS011;4587;51.434;6.788;2023-12-14T11:13:09;15.63;;;13.03;;
9102;SDS011;4587;51.434;6.788;2023-12-14T11:15:38;16.13;;;13.40;;
9102;SDS011;4587;51.434;6.788;2023-12-14T11:23:09;15.00;;;12.83;;
9102;SDS011;4587;51.434;6.788;2023-12-14T11:25:35;14.60;;;13.10;;
9102;SDS011;4587;51.434;6.788;2023-12-14T11:28:06;19.13;;;13.13;;
9102;SDS011;4587;51.434;6.788;2023-12-14T11:30:33;17.00;;;14.30;;
9102;SDS011;4587;51.434;6.788;2023-12-14T11:32:59;14.97;;;13.13;;
9102;SDS011;4587;51.434;6.788;2023-12-14T11:35:25;15.03;;;13.40;;
9102;SDS011;4587;51.434;6.788;2023-12-14T11:37:50;15.27;;;13.10;;
9102;SDS011;4587;51.434;6.788;2023-12-14T11:40:16;14.83;;;13.03;;
9102;SDS011;4587;51.434;6.788;2023-12-14T11:42:57;14.20;;;12.70;;
9102;SDS011;4587;51.434;6.788;2023-12-14T11:45:26;14.03;;;11.30;;
9102;SDS011;4587;51.434;6.788;2023-12-14T11:47:52;14.93;;;12.03;;
9102;SDS011;4587;51.434;6.788;2023-12-14T11:50:18;13.67;;;10.80;;
9102;SDS011;4587;51.434;6.788;2023-12-14T11:52:44;11.63;;;9.60;;
9102;SDS011;4587;51.434;6.788;2023-12-14T11:55:10;13.50;;;10.27;;
9102;SDS011;4587;51.434;6.788;2023-12-14T11:57:36;13.53;;;10.63;;
9102;SDS011;4587;51.434;6.788;2023-12-14T12:00:01;12.73;;;9.30;;
9102;SDS011;4587;51.434;6.788;2023-12-14T12:02:28;12.13;;;8.73;;
9102;SDS011;4587;51.434;6.788;2023-12-14T12:04:53;10.07;;;8.97;;
9102;SDS011;4587;51.434;6.788;2023-12-14T12:07:19;12.90;;;9.27;;
9102;SDS011;4587;51.434;6.788;2023-12-14T12:09:45;11.57;;;8.43;;
9102;SDS011;4587;51.434;6.788;2023-12-14T12:12:12;11.97;;;8.90;;
9102;SDS011;4587;51.434;6.788;2023-12-14T12:14:41;11.73;;;8.87;;
9102;SDS011;4587;51.434;6.788;2023-12-14T12:17:07;10.53;;;9.17;;
9102;SDS011;4587;51.434;6.788;2023-12-14T12:19:33;11.60;;;9.37;;
9102;SDS011;4587;51.434;6.788;2023-12-14T12:22:00;11.40;;;9.37;;
9102;SDS011;4587;51.434;6.788;2023-12-14T12:24:25;11.13;;;8.97;;
9102;SDS011;4587;51.434;6.788;2023-12-14T12:26:51;11.90;;;10.00;;
9102;SDS011;4587;51.434;6.788;2023-12-14T12:29:16;13.07;;;9.63;;
9102;SDS011;4587;51.434;6.788;2023-12-14T12:31:42;11.70;;;9.87;;
9102;SDS011;4587;51.434;6.788;2023-12-14T12:34:08;10.77;;;9.50;;
9102;SDS011;4587;51.434;6.788;2023-12-14T12:36:34;11.70;;;10.03;;
9102;SDS011;4587;51.434;6.788;2023-12-14T12:39:00;10.93;;;9.67;;
9102;SDS011;4587;51.434;6.788;2023-12-14T12:41:25;10.90;;;9.60;;
9102;SDS011;4587;51.434;6.788;2023-12-14T12:43:51;11.57;;;9.87;;
9102;SDS011;4587;51.434;6.788;2023-12-14T12:46:16;11.17;;;9.50;;
9102;SDS011;4587;51.434;6.788;2023-12-14T12:48:43;11.33;;;10.13;;
9102;SDS011;4587;51.434;6.788;2023-12-14T12:51:09;15.77;;;11.93;;
9102;SDS011;4587;51.434;6.788;2023-12-14T12:53:34;17.60;;;12.33;;
9102;SDS011;4587;51.434;6.788;2023-12-14T12:56:00;16.17;;;11.90;;
9102;SDS011;4587;51.434;6.788;2023-12-14T12:58:25;15.23;;;11.60;;
9102;SDS011;4587;51.434;6.788;2023-12-14T13:00:51;12.03;;;10.30;;
9102;SDS011;4587;51.434;6.788;2023-12-14T13:03:16;11.43;;;9.13;;
9102;SDS011;4587;51.434;6.788;2023-12-14T13:05:42;11.57;;;8.90;;
9102;SDS011;4587;51.434;6.788;2023-12-14T13:08:08;11.50;;;8.90;;
9102;SDS011;4587;51.434;6.788;2023-12-14T13:10:34;10.13;;;8.77;;
9102;SDS011;4587;51.434;6.788;2023-12-14T13:12:59;9.80;;;8.70;;
9102;SDS011;4587;51.434;6.788;2023-12-14T13:15:25;8.97;;;8.07;;
9102;SDS011;4587;51.434;6.788;2023-12-14T13:17:52;8.93;;;8.13;;
9102;SDS011;4587;51.434;6.788;2023-12-14T13:20:18;8.97;;;7.67;;
9102;SDS011;4587;51.434;6.788;2023-12-14T13:22:44;8.30;;;7.50;;
9102;SDS011;4587;51.434;6.788;2023-12-14T13:25:10;8.27;;;7.47;;
9102;SDS011;4587;51.434;6.788;2023-12-14T13:27:35;8.53;;;7.53;;
9102;SDS011;4587;51.434;6.788;2023-12-14T13:30:02;8.87;;;7.53;;
9102;SDS011;4587;51.434;6.788;2023-12-14T13:32:29;9.07;;;7.60;;
9102;SDS011;4587;51.434;6.788;2023-12-14T13:34:54;9.43;;;7.80;;
9102;SDS011;4587;51.434;6.788;2023-12-14T13:37:20;9.07;;;7.97;;
9102;SDS011;4587;51.434;6.788;2023-12-14T13:39:45;11.00;;;8.07;;
9102;SDS011;4587;51.434;6.788;2023-12-14T13:42:12;12.53;;;8.73;;
9102;SDS011;4587;51.434;6.788;2023-12-14T13:44:40;9.67;;;8.33;;
9102;SDS011;4587;51.434;6.788;2023-12-14T13:47:06;9.13;;;8.20;;
9102;SDS011;4587;51.434;6.788;2023-12-14T13:49:32;9.50;;;8.50;;
9102;SDS011;4587;51.434;6.788;2023-12-14T13:51:58;11.07;;;8.53;;
9102;SDS011;4587;51.434;6.788;2023-12-14T13:54:24;9.40;;;8.10;;
9102;SDS011;4587;51.434;6.788;2023-12-14T13:56:49;10.37;;;8.40;;
9102;SDS011;4587;51.434;6.788;2023-12-14T13:59:15;11.70;;;9.03;;
9102;SDS011;4587;51.434;6.788;2023-12-14T14:01:40;9.77;;;8.77;;
9102;SDS011;4587;51.434;6.788;2023-12-14T14:04:06;10.37;;;8.70;;
9102;SDS011;4587;51.434;6.788;2023-12-14T14:06:32;10.00;;;9.00;;
9102;SDS011;4587;51.434;6.788;2023-12-14T14:08:57;10.03;;;8.40;;
9102;SDS011;4587;51.434;6.788;2023-12-14T14:11:23;11.37;;;9.40;;
9102;SDS011;4587;51.434;6.788;2023-12-14T14:13:48;12.07;;;9.20;;
9102;SDS011;4587;51.434;6.788;2023-12-14T14:16:14;11.80;;;9.10;;
9102;SDS011;4587;51.434;6.788;2023-12-14T14:18:39;10.10;;;8.57;;
9102;SDS011;4587;51.434;6.788;2023-12-14T14:21:05;10.33;;;9.23;;
9102;SDS011;4587;51.434;6.788;2023-12-14T14:23:33;11.20;;;9.10;;
9102;SDS011;4587;51.434;6.788;2023-12-14T14:25:59;10.50;;;9.40;;
9102;SDS011;4587;51.434;6.788;2023-12-14T14:28:25;11.13;;;9.53;;
9102;SDS011;4587;51.434;6.788;2023-12-14T14:30:50;12.20;;;9.70;;
9102;SDS011;4587;51.434;6.788;2023-12-14T14:33:16;10.80;;;9.70;;
9102;SDS011;4587;51.434;6.788;2023-12-14T14:35:44;11.93;;;9.67;;
9102;SDS011;4587;51.434;6.788;2023-12-14T14:38:11;11.00;;;9.20;;
9102;SDS011;4587;51.434;6.788;2023-12-14T14:40:37;11.43;;;9.90;;
9102;SDS011;4587;51.434;6.788;2023-12-14T14:43:03;12.27;;;9.83;;
9102;SDS011;4587;51.434;6.788;2023-12-14T14:45:29;11.00;;;9.27;;
9102;SDS011;4587;51.434;6.788;2023-12-14T14:47:55;12.33;;;10.17;;
9102;SDS011;4587;51.434;6.788;2023-12-14T14:50:21;10.73;;;9.63;;
9102;SDS011;4587;51.434;6.788;2023-12-14T14:52:46;12.37;;;10.87;;